sensor_id;sensor_type;location;lat;lon;timestamp;temperature;humidity
44435;DHT22;30138;20.964;105.830;2022-09-27T00:03:01;30.10;99.90
44435;DHT22;30138;20.964;105.830;2022-09-27T00:08:09;30.10;99.90
44435;DHT22;30138;20.964;105.830;2022-09-27T00:13:16;30.20;99.90
44435;DHT22;30138;20.964;105.830;2022-09-27T00:18:24;30.10;99.90
44435;DHT22;30138;20.964;105.830;2022-09-27T00:23:33;30.20;99.90
44435;DHT22;30138;20.964;105.830;2022-09-27T00:28:40;30.20;99.90
44435;DHT22;30138;20.964;105.830;2022-09-27T00:33:48;30.20;99.90
44435;DHT22;30138;20.964;105.830;2022-09-27T00:38:59;30.20;99.90
44435;DHT22;30138;20.964;105.830;2022-09-27T00:50:18;30.20;99.90
44435;DHT22;30138;20.964;105.830;2022-09-27T00:55:31;30.20;99.90
44435;DHT22;30138;20.964;105.830;2022-09-27T01:00:45;30.20;99.90
44435;DHT22;30138;20.964;105.830;2022-09-27T01:05:53;30.20;99.90
44435;DHT22;30138;20.964;105.830;2022-09-27T01:11:13;30.20;99.90
44435;DHT22;30138;20.964;105.830;2022-09-27T01:16:28;30.20;99.90
44435;DHT22;30138;20.964;105.830;2022-09-27T01:21:52;30.20;99.90
44435;DHT22;30138;20.964;105.830;2022-09-27T01:38:41;30.20;99.90
44435;DHT22;30138;20.964;105.830;2022-09-27T01:43:56;30.20;99.90
44435;DHT22;30138;20.964;105.830;2022-09-27T01:49:17;30.30;99.90
44435;DHT22;30138;20.964;105.830;2022-09-27T01:54:31;30.30;99.90
44435;DHT22;30138;20.964;105.830;2022-09-27T02:00:03;30.30;99.90
44435;DHT22;30138;20.964;105.830;2022-09-27T02:05:24;30.30;99.90
44435;DHT22;30138;20.964;105.830;2022-09-27T02:10:43;30.40;99.90
44435;DHT22;30138;20.964;105.830;2022-09-27T02:15:59;30.40;99.90
44435;DHT22;30138;20.964;105.830;2022-09-27T02:21:20;30.40;99.90
44435;DHT22;30138;20.964;105.830;2022-09-27T02:26:40;30.40;99.90
44435;DHT22;30138;20.964;105.830;2022-09-27T02:31:50;30.50;99.90
44435;DHT22;30138;20.964;105.830;2022-09-27T02:37:00;30.50;99.90
44435;DHT22;30138;20.964;105.830;2022-09-27T02:42:07;30.60;99.90
44435;DHT22;30138;20.964;105.830;2022-09-27T02:53:19;30.60;99.90
44435;DHT22;30138;20.964;105.830;2022-09-27T02:58:45;30.60;99.90
44435;DHT22;30138;20.964;105.830;2022-09-27T03:04:16;30.60;99.90
44435;DHT22;30138;20.964;105.830;2022-09-27T03:09:38;30.70;99.90
44435;DHT22;30138;20.964;105.830;2022-09-27T03:14:46;30.70;99.90
44435;DHT22;30138;20.964;105.830;2022-09-27T03:20:13;30.80;99.90
44435;DHT22;30138;20.964;105.830;2022-09-27T03:25:33;30.80;99.90
44435;DHT22;30138;20.964;105.830;2022-09-27T03:30:41;30.90;99.90
44435;DHT22;30138;20.964;105.830;2022-09-27T03:36:06;30.90;99.90
44435;DHT22;30138;20.964;105.830;2022-09-27T03:41:15;30.90;99.90
44435;DHT22;30138;20.964;105.830;2022-09-27T03:46:21;31.00;99.90
44435;DHT22;30138;20.964;105.830;2022-09-27T03:51:28;31.00;99.90
44435;DHT22;30138;20.964;105.830;2022-09-27T03:56:39;31.00;99.90
44435;DHT22;30138;20.964;105.830;2022-09-27T04:01:47;31.00;99.90
44435;DHT22;30138;20.964;105.830;2022-09-27T04:07:13;31.10;99.90
44435;DHT22;30138;20.964;105.830;2022-09-27T04:12:22;31.10;99.90
44435;DHT22;30138;20.964;105.830;2022-09-27T04:17:29;31.00;99.90
44435;DHT22;30138;20.964;105.830;2022-09-27T04:23:14;31.10;99.90
44435;DHT22;30138;20.964;105.830;2022-09-27T04:28:28;31.10;99.90
44435;DHT22;30138;20.964;105.830;2022-09-27T04:33:36;31.10;99.90
44435;DHT22;30138;20.964;105.830;2022-09-27T04:39:05;31.10;99.90
44435;DHT22;30138;20.964;105.830;2022-09-27T04:44:18;31.10;99.90
44435;DHT22;30138;20.964;105.830;2022-09-27T04:49:26;31.20;99.90
44435;DHT22;30138;20.964;105.830;2022-09-27T04:54:32;31.30;99.90
44435;DHT22;30138;20.964;105.830;2022-09-27T04:59:49;31.20;99.90
44435;DHT22;30138;20.964;105.830;2022-09-27T05:04:57;31.20;99.90
44435;DHT22;30138;20.964;105.830;2022-09-27T05:10:10;31.20;99.90
44435;DHT22;30138;20.964;105.830;2022-09-27T05:15:19;31.30;99.90
44435;DHT22;30138;20.964;105.830;2022-09-27T05:20:55;31.30;99.90
44435;DHT22;30138;20.964;105.830;2022-09-27T05:26:13;31.30;99.90
44435;DHT22;30138;20.964;105.830;2022-09-27T05:31:23;31.30;99.90
44435;DHT22;30138;20.964;105.830;2022-09-27T05:36:30;31.30;99.90
44435;DHT22;30138;20.964;105.830;2022-09-27T05:41:37;31.30;99.90
44435;DHT22;30138;20.964;105.830;2022-09-27T05:46:46;31.40;99.90
44435;DHT22;30138;20.964;105.830;2022-09-27T05:51:55;31.40;99.90
44435;DHT22;30138;20.964;105.830;2022-09-27T05:57:04;31.40;99.90
44435;DHT22;30138;20.964;105.830;2022-09-27T06:02:24;31.40;99.90
44435;DHT22;30138;20.964;105.830;2022-09-27T06:07:50;31.50;99.90
44435;DHT22;30138;20.964;105.830;2022-09-27T06:13:05;31.60;99.90
44435;DHT22;30138;20.964;105.830;2022-09-27T06:18:18;31.60;99.90
44435;DHT22;30138;20.964;105.830;2022-09-27T06:23:27;31.60;99.90
44435;DHT22;30138;20.964;105.830;2022-09-27T06:28:36;31.60;99.90
44435;DHT22;30138;20.964;105.830;2022-09-27T06:33:45;31.60;99.90
44435;DHT22;30138;20.964;105.830;2022-09-27T06:38:52;31.60;99.90
44435;DHT22;30138;20.964;105.830;2022-09-27T06:44:07;31.60;99.90
44435;DHT22;30138;20.964;105.830;2022-09-27T06:49:48;31.60;99.90
44435;DHT22;30138;20.964;105.830;2022-09-27T06:54:56;31.60;99.90
44435;DHT22;30138;20.964;105.830;2022-09-27T07:00:04;31.60;99.90
44435;DHT22;30138;20.964;105.830;2022-09-27T07:05:58;31.60;99.90
44435;DHT22;30138;20.964;105.830;2022-09-27T07:11:19;31.60;99.90
44435;DHT22;30138;20.964;105.830;2022-09-27T07:16:28;31.60;99.90
44435;DHT22;30138;20.964;105.830;2022-09-27T07:21:41;31.60;99.90
44435;DHT22;30138;20.964;105.830;2022-09-27T07:26:48;31.60;99.90
44435;DHT22;30138;20.964;105.830;2022-09-27T07:31:57;31.70;99.90
44435;DHT22;30138;20.964;105.830;2022-09-27T07:37:06;31.70;99.90
44435;DHT22;30138;20.964;105.830;2022-09-27T07:42:14;31.70;99.90
44435;DHT22;30138;20.964;105.830;2022-09-27T07:47:26;31.70;99.90
44435;DHT22;30138;20.964;105.830;2022-09-27T07:53:02;31.70;99.90
44435;DHT22;30138;20.964;105.830;2022-09-27T07:58:20;31.70;99.90
44435;DHT22;30138;20.964;105.830;2022-09-27T08:03:32;31.70;99.90
44435;DHT22;30138;20.964;105.830;2022-09-27T08:08:41;31.70;99.90
44435;DHT22;30138;20.964;105.830;2022-09-27T08:13:49;31.70;99.90
44435;DHT22;30138;20.964;105.830;2022-09-27T08:19:00;31.70;99.90
44435;DHT22;30138;20.964;105.830;2022-09-27T08:24:19;31.70;99.90
44435;DHT22;30138;20.964;105.830;2022-09-27T08:29:49;31.70;99.90
44435;DHT22;30138;20.964;105.830;2022-09-27T08:34:58;31.70;99.90
44435;DHT22;30138;20.964;105.830;2022-09-27T08:40:08;31.70;99.90
44435;DHT22;30138;20.964;105.830;2022-09-27T08:45:25;31.80;99.90
44435;DHT22;30138;20.964;105.830;2022-09-27T08:50:40;31.80;99.90
44435;DHT22;30138;20.964;105.830;2022-09-27T08:55:52;31.80;99.90
44435;DHT22;30138;20.964;105.830;2022-09-27T09:01:12;31.80;99.70
44435;DHT22;30138;20.964;105.830;2022-09-27T09:06:38;31.80;99.90
44435;DHT22;30138;20.964;105.830;2022-09-27T09:11:55;31.80;99.50
44435;DHT22;30138;20.964;105.830;2022-09-27T09:17:35;31.80;99.40
44435;DHT22;30138;20.964;105.830;2022-09-27T09:23:20;31.80;99.20
44435;DHT22;30138;20.964;105.830;2022-09-27T09:28:58;31.70;99.70
44435;DHT22;30138;20.964;105.830;2022-09-27T09:34:16;31.80;99.50
44435;DHT22;30138;20.964;105.830;2022-09-27T09:39:27;31.70;99.50
44435;DHT22;30138;20.964;105.830;2022-09-27T09:44:46;31.70;99.00
44435;DHT22;30138;20.964;105.830;2022-09-27T09:49:59;31.70;99.20
44435;DHT22;30138;20.964;105.830;2022-09-27T09:55:18;31.70;99.50
44435;DHT22;30138;20.964;105.830;2022-09-27T10:00:29;31.70;99.60
44435;DHT22;30138;20.964;105.830;2022-09-27T10:05:36;31.70;99.80
44435;DHT22;30138;20.964;105.830;2022-09-27T10:10:44;31.70;99.80
44435;DHT22;30138;20.964;105.830;2022-09-27T10:16:16;31.70;99.70
44435;DHT22;30138;20.964;105.830;2022-09-27T10:21:27;31.70;99.70
44435;DHT22;30138;20.964;105.830;2022-09-27T10:26:36;31.70;99.90
44435;DHT22;30138;20.964;105.830;2022-09-27T10:31:48;31.70;99.90
44435;DHT22;30138;20.964;105.830;2022-09-27T10:37:05;31.70;99.90
44435;DHT22;30138;20.964;105.830;2022-09-27T10:42:35;31.70;99.90
44435;DHT22;30138;20.964;105.830;2022-09-27T10:47:52;31.70;99.90
44435;DHT22;30138;20.964;105.830;2022-09-27T10:53:13;31.70;99.90
44435;DHT22;30138;20.964;105.830;2022-09-27T10:58:30;31.70;99.90
44435;DHT22;30138;20.964;105.830;2022-09-27T11:03:59;31.60;99.90
44435;DHT22;30138;20.964;105.830;2022-09-27T11:09:21;31.60;99.90
44435;DHT22;30138;20.964;105.830;2022-09-27T11:14:30;31.60;99.90
44435;DHT22;30138;20.964;105.830;2022-09-27T11:19:57;31.60;99.90
44435;DHT22;30138;20.964;105.830;2022-09-27T11:25:36;31.60;99.90
44435;DHT22;30138;20.964;105.830;2022-09-27T11:31:02;31.70;99.90
44435;DHT22;30138;20.964;105.830;2022-09-27T11:36:40;31.60;99.90
44435;DHT22;30138;20.964;105.830;2022-09-27T11:42:07;31.60;99.90
44435;DHT22;30138;20.964;105.830;2022-09-27T11:47:35;31.60;99.90
44435;DHT22;30138;20.964;105.830;2022-09-27T11:52:53;31.60;99.90
44435;DHT22;30138;20.964;105.830;2022-09-27T11:58:11;31.60;99.90
44435;DHT22;30138;20.964;105.830;2022-09-27T12:09:10;31.60;99.90
44435;DHT22;30138;20.964;105.830;2022-09-27T12:14:23;31.60;99.90
44435;DHT22;30138;20.964;105.830;2022-09-27T12:19:37;31.60;99.90
44435;DHT22;30138;20.964;105.830;2022-09-27T12:25:06;31.60;99.90
44435;DHT22;30138;20.964;105.830;2022-09-27T12:30:28;31.60;99.90
44435;DHT22;30138;20.964;105.830;2022-09-27T12:35:45;31.60;99.90
44435;DHT22;30138;20.964;105.830;2022-09-27T12:40:58;31.60;99.90
44435;DHT22;30138;20.964;105.830;2022-09-27T12:46:19;31.60;99.90
44435;DHT22;30138;20.964;105.830;2022-09-27T12:51:35;31.60;99.90
44435;DHT22;30138;20.964;105.830;2022-09-27T12:56:53;31.60;99.90
44435;DHT22;30138;20.964;105.830;2022-09-27T13:02:25;31.60;99.90
44435;DHT22;30138;20.964;105.830;2022-09-27T13:07:53;31.60;99.90
44435;DHT22;30138;20.964;105.830;2022-09-27T13:13:18;31.60;99.90
44435;DHT22;30138;20.964;105.830;2022-09-27T13:18:49;31.60;99.90
44435;DHT22;30138;20.964;105.830;2022-09-27T13:24:38;31.60;99.90
44435;DHT22;30138;20.964;105.830;2022-09-27T13:36:28;31.60;99.90
44435;DHT22;30138;20.964;105.830;2022-09-27T13:41:57;31.50;99.90
44435;DHT22;30138;20.964;105.830;2022-09-27T13:47:23;31.50;99.90
44435;DHT22;30138;20.964;105.830;2022-09-27T13:53:03;31.50;99.90
44435;DHT22;30138;20.964;105.830;2022-09-27T14:04:18;31.50;99.90
44435;DHT22;30138;20.964;105.830;2022-09-27T14:09:32;31.50;99.90
44435;DHT22;30138;20.964;105.830;2022-09-27T14:14:55;31.50;99.90
44435;DHT22;30138;20.964;105.830;2022-09-27T14:20:34;31.50;99.90
44435;DHT22;30138;20.964;105.830;2022-09-27T14:26:23;31.50;99.90
44435;DHT22;30138;20.964;105.830;2022-09-27T14:31:32;31.50;99.90
44435;DHT22;30138;20.964;105.830;2022-09-27T14:36:49;31.50;99.90
44435;DHT22;30138;20.964;105.830;2022-09-27T14:42:26;31.50;99.90
44435;DHT22;30138;20.964;105.830;2022-09-27T14:47:45;31.50;99.90
44435;DHT22;30138;20.964;105.830;2022-09-27T14:52:58;31.50;99.90
44435;DHT22;30138;20.964;105.830;2022-09-27T14:58:13;31.50;99.90
44435;DHT22;30138;20.964;105.830;2022-09-27T15:03:31;31.50;99.90
44435;DHT22;30138;20.964;105.830;2022-09-27T15:08:46;31.50;99.90
44435;DHT22;30138;20.964;105.830;2022-09-27T15:13:57;31.50;99.90
44435;DHT22;30138;20.964;105.830;2022-09-27T15:19:13;31.40;99.90
44435;DHT22;30138;20.964;105.830;2022-09-27T15:24:42;31.50;99.90
44435;DHT22;30138;20.964;105.830;2022-09-27T15:29:52;31.50;99.90
44435;DHT22;30138;20.964;105.830;2022-09-27T15:35:07;31.50;99.90
44435;DHT22;30138;20.964;105.830;2022-09-27T15:46:32;31.50;99.90
44435;DHT22;30138;20.964;105.830;2022-09-27T15:51:40;31.50;99.90
44435;DHT22;30138;20.964;105.830;2022-09-27T15:56:48;31.50;99.90
44435;DHT22;30138;20.964;105.830;2022-09-27T16:01:58;31.40;99.90
44435;DHT22;30138;20.964;105.830;2022-09-27T16:07:09;31.40;99.90
44435;DHT22;30138;20.964;105.830;2022-09-27T16:12:17;31.40;99.90
44435;DHT22;30138;20.964;105.830;2022-09-27T16:17:25;31.40;99.90
44435;DHT22;30138;20.964;105.830;2022-09-27T16:22:32;31.40;99.90
44435;DHT22;30138;20.964;105.830;2022-09-27T16:27:38;31.40;99.90
44435;DHT22;30138;20.964;105.830;2022-09-27T16:32:47;31.40;99.90
44435;DHT22;30138;20.964;105.830;2022-09-27T16:37:54;31.40;99.90
44435;DHT22;30138;20.964;105.830;2022-09-27T16:43:00;31.40;99.90
44435;DHT22;30138;20.964;105.830;2022-09-27T16:48:11;31.40;99.80
44435;DHT22;30138;20.964;105.830;2022-09-27T16:53:18;31.40;99.80
44435;DHT22;30138;20.964;105.830;2022-09-27T16:58:25;31.40;99.70
44435;DHT22;30138;20.964;105.830;2022-09-27T17:03:35;31.40;99.60
44435;DHT22;30138;20.964;105.830;2022-09-27T17:08:41;31.40;99.50
44435;DHT22;30138;20.964;105.830;2022-09-27T17:13:51;31.40;99.40
44435;DHT22;30138;20.964;105.830;2022-09-27T17:19:01;31.40;99.30
44435;DHT22;30138;20.964;105.830;2022-09-27T17:24:07;31.40;99.20
44435;DHT22;30138;20.964;105.830;2022-09-27T17:29:14;31.40;99.10
44435;DHT22;30138;20.964;105.830;2022-09-27T17:34:23;31.40;99.00
44435;DHT22;30138;20.964;105.830;2022-09-27T17:39:29;31.40;98.90
44435;DHT22;30138;20.964;105.830;2022-09-27T17:44:35;31.40;98.90
44435;DHT22;30138;20.964;105.830;2022-09-27T17:49:44;31.40;99.00
44435;DHT22;30138;20.964;105.830;2022-09-27T17:55:07;31.40;99.10
44435;DHT22;30138;20.964;105.830;2022-09-27T18:00:14;31.40;99.20
44435;DHT22;30138;20.964;105.830;2022-09-27T18:05:23;31.40;99.30
44435;DHT22;30138;20.964;105.830;2022-09-27T18:10:31;31.40;99.40
44435;DHT22;30138;20.964;105.830;2022-09-27T18:15:37;31.40;99.50
44435;DHT22;30138;20.964;105.830;2022-09-27T18:20:45;31.40;99.70
44435;DHT22;30138;20.964;105.830;2022-09-27T18:25:55;31.30;99.70
44435;DHT22;30138;20.964;105.830;2022-09-27T18:31:02;31.40;99.80
44435;DHT22;30138;20.964;105.830;2022-09-27T18:36:13;31.40;99.90
44435;DHT22;30138;20.964;105.830;2022-09-27T18:41:21;31.40;99.90
44435;DHT22;30138;20.964;105.830;2022-09-27T18:46:30;31.40;99.90
44435;DHT22;30138;20.964;105.830;2022-09-27T18:51:40;31.30;99.80
44435;DHT22;30138;20.964;105.830;2022-09-27T18:56:49;31.30;99.80
44435;DHT22;30138;20.964;105.830;2022-09-27T19:01:56;31.30;99.70
44435;DHT22;30138;20.964;105.830;2022-09-27T19:07:04;31.30;99.60
44435;DHT22;30138;20.964;105.830;2022-09-27T19:12:11;31.30;99.50
44435;DHT22;30138;20.964;105.830;2022-09-27T19:17:18;31.30;99.50
44435;DHT22;30138;20.964;105.830;2022-09-27T19:22:28;31.30;99.40
44435;DHT22;30138;20.964;105.830;2022-09-27T19:27:34;31.30;99.40
44435;DHT22;30138;20.964;105.830;2022-09-27T19:32:42;31.30;99.40
44435;DHT22;30138;20.964;105.830;2022-09-27T19:37:52;31.30;99.40
44435;DHT22;30138;20.964;105.830;2022-09-27T19:42:58;31.30;99.40
44435;DHT22;30138;20.964;105.830;2022-09-27T19:48:04;31.30;99.50
44435;DHT22;30138;20.964;105.830;2022-09-27T19:53:13;31.30;99.60
44435;DHT22;30138;20.964;105.830;2022-09-27T19:58:19;31.30;99.80
44435;DHT22;30138;20.964;105.830;2022-09-27T20:03:27;31.30;99.90
44435;DHT22;30138;20.964;105.830;2022-09-27T20:08:36;31.30;99.90
44435;DHT22;30138;20.964;105.830;2022-09-27T20:13:42;31.30;99.90
44435;DHT22;30138;20.964;105.830;2022-09-27T20:18:50;31.30;99.90
44435;DHT22;30138;20.964;105.830;2022-09-27T20:24:00;31.30;99.90
44435;DHT22;30138;20.964;105.830;2022-09-27T20:29:07;31.30;99.90
44435;DHT22;30138;20.964;105.830;2022-09-27T20:34:14;31.30;99.90
44435;DHT22;30138;20.964;105.830;2022-09-27T20:39:23;31.30;99.90
44435;DHT22;30138;20.964;105.830;2022-09-27T20:44:29;31.30;99.90
44435;DHT22;30138;20.964;105.830;2022-09-27T20:49:35;31.30;99.90
44435;DHT22;30138;20.964;105.830;2022-09-27T20:54:46;31.30;99.90
44435;DHT22;30138;20.964;105.830;2022-09-27T20:59:52;31.30;99.90
44435;DHT22;30138;20.964;105.830;2022-09-27T21:05:00;31.30;99.90
44435;DHT22;30138;20.964;105.830;2022-09-27T21:10:09;31.20;99.90
44435;DHT22;30138;20.964;105.830;2022-09-27T21:15:16;31.20;99.90
44435;DHT22;30138;20.964;105.830;2022-09-27T21:20:27;31.20;99.90
44435;DHT22;30138;20.964;105.830;2022-09-27T21:25:34;31.20;99.90
44435;DHT22;30138;20.964;105.830;2022-09-27T21:30:41;31.20;99.90
44435;DHT22;30138;20.964;105.830;2022-09-27T21:35:49;31.20;99.90
44435;DHT22;30138;20.964;105.830;2022-09-27T21:40:59;31.20;99.90
44435;DHT22;30138;20.964;105.830;2022-09-27T21:46:08;31.20;99.90
44435;DHT22;30138;20.964;105.830;2022-09-27T21:51:17;31.20;99.90
44435;DHT22;30138;20.964;105.830;2022-09-27T21:56:26;31.20;99.90
44435;DHT22;30138;20.964;105.830;2022-09-27T22:01:35;31.10;99.90
44435;DHT22;30138;20.964;105.830;2022-09-27T22:06:43;31.10;99.90
44435;DHT22;30138;20.964;105.830;2022-09-27T22:11:51;31.10;99.90
44435;DHT22;30138;20.964;105.830;2022-09-27T22:16:58;31.10;99.90
44435;DHT22;30138;20.964;105.830;2022-09-27T22:22:05;31.10;99.90
44435;DHT22;30138;20.964;105.830;2022-09-27T22:27:13;31.10;99.90
44435;DHT22;30138;20.964;105.830;2022-09-27T22:32:20;31.10;99.90
44435;DHT22;30138;20.964;105.830;2022-09-27T22:37:27;31.10;99.90
44435;DHT22;30138;20.964;105.830;2022-09-27T22:42:36;31.10;99.90
44435;DHT22;30138;20.964;105.830;2022-09-27T22:47:43;31.10;99.90
44435;DHT22;30138;20.964;105.830;2022-09-27T22:52:50;31.10;99.90
44435;DHT22;30138;20.964;105.830;2022-09-27T22:57:58;31.10;99.90
44435;DHT22;30138;20.964;105.830;2022-09-27T23:03:05;31.10;99.90
44435;DHT22;30138;20.964;105.830;2022-09-27T23:08:15;31.10;99.90
44435;DHT22;30138;20.964;105.830;2022-09-27T23:13:23;31.10;99.90
44435;DHT22;30138;20.964;105.830;2022-09-27T23:18:34;31.10;99.90
44435;DHT22;30138;20.964;105.830;2022-09-27T23:23:42;31.10;99.90
44435;DHT22;30138;20.964;105.830;2022-09-27T23:28:54;31.10;99.90
44435;DHT22;30138;20.964;105.830;2022-09-27T23:34:04;31.00;99.90
44435;DHT22;30138;20.964;105.830;2022-09-27T23:39:11;31.00;99.90
44435;DHT22;30138;20.964;105.830;2022-09-27T23:44:21;31.00;99.90
44435;DHT22;30138;20.964;105.830;2022-09-27T23:49:28;31.00;99.90
44435;DHT22;30138;20.964;105.830;2022-09-27T23:54:35;31.00;99.90
44435;DHT22;30138;20.964;105.830;2022-09-27T23:59:45;31.00;99.90
